createdAt,value
2018-05-01T00:00:24.901Z,1000.96
2018-05-01T00:02:16.656Z,1001.07
2018-05-01T00:03:16.592Z,1001.08
2018-05-01T00:05:08.348Z,1001.17
2018-05-01T00:06:08.277Z,1001.20
2018-05-01T00:08:00.021Z,1001.17
2018-05-01T00:08:59.963Z,1001.16
2018-05-01T00:10:51.728Z,1001.13
2018-05-01T00:11:51.656Z,1001.13
2018-05-01T00:13:43.407Z,1001.04
2018-05-01T00:14:43.345Z,1000.98
2018-05-01T00:16:35.100Z,1000.90
2018-05-01T00:17:35.027Z,1000.99
2018-05-01T00:19:26.776Z,1001.06
2018-05-01T00:20:26.710Z,1001.11
2018-05-01T00:22:18.490Z,1001.12
2018-05-01T00:23:18.420Z,1001.16
2018-05-01T00:25:10.205Z,1001.25
2018-05-01T00:26:10.127Z,1001.24
2018-05-01T00:28:01.923Z,1001.22
2018-05-01T00:29:01.876Z,1001.18
2018-05-01T00:30:53.628Z,1001.18
2018-05-01T00:31:53.560Z,1001.19
2018-05-01T00:33:45.311Z,1001.10
2018-05-01T00:34:45.245Z,1001.12
2018-05-01T00:36:37.025Z,1001.21
2018-05-01T00:37:36.951Z,1001.23
2018-05-01T00:39:28.719Z,1001.33
2018-05-01T00:40:28.655Z,1001.37
2018-05-01T00:42:20.413Z,1001.42
2018-05-01T00:43:20.342Z,1001.39
2018-05-01T00:45:12.099Z,1001.49
2018-05-01T00:46:12.033Z,1001.51
2018-05-01T00:48:03.792Z,1001.64
2018-05-01T00:49:03.730Z,1001.66
2018-05-01T00:50:55.496Z,1001.74
2018-05-01T00:51:55.418Z,1001.77
2018-05-01T00:53:47.166Z,1001.81
2018-05-01T00:54:47.105Z,1001.80
2018-05-01T00:56:38.880Z,1001.74
2018-05-01T00:57:38.808Z,1001.69
2018-05-01T00:59:30.555Z,1001.70
2018-05-01T01:00:30.492Z,1001.65
2018-05-01T01:02:22.242Z,1001.67
2018-05-01T01:03:22.174Z,1001.63
2018-05-01T01:05:13.941Z,1001.66
2018-05-01T01:06:13.883Z,1001.65
2018-05-01T01:08:05.676Z,1001.54
2018-05-01T01:09:05.606Z,1001.54
2018-05-01T01:10:57.424Z,1001.53
2018-05-01T01:11:57.292Z,1001.52
2018-05-01T01:13:49.038Z,1001.55
2018-05-01T01:14:48.976Z,1001.53
2018-05-01T01:16:40.751Z,1001.58
2018-05-01T01:17:40.679Z,1001.58
2018-05-01T01:19:32.426Z,1001.63
2018-05-01T01:20:32.365Z,1001.59
2018-05-01T01:22:24.177Z,1001.60
2018-05-01T01:23:24.101Z,1001.58
2018-05-01T01:25:15.864Z,1001.45
2018-05-01T01:26:15.803Z,1001.49
2018-05-01T01:28:07.555Z,1001.54
2018-05-01T01:29:07.485Z,1001.53
2018-05-01T01:30:59.239Z,1001.55
2018-05-01T01:31:59.169Z,1001.53
2018-05-01T01:33:50.913Z,1001.54
2018-05-01T01:34:50.851Z,1001.57
2018-05-01T01:36:42.626Z,1001.62
2018-05-01T01:37:42.552Z,1001.58
2018-05-01T01:39:34.307Z,1001.48
2018-05-01T01:40:34.246Z,1001.48
2018-05-01T01:42:26.022Z,1001.54
2018-05-01T01:43:25.957Z,1001.53
2018-05-01T01:45:17.694Z,1001.50
2018-05-01T01:46:17.634Z,1001.50
2018-05-01T01:48:09.404Z,1001.47
2018-05-01T01:49:09.345Z,1001.51
2018-05-01T01:51:01.093Z,1001.56
2018-05-01T01:52:01.023Z,1001.53
2018-05-01T01:53:52.839Z,1001.57
2018-05-01T01:54:52.764Z,1001.58
2018-05-01T01:56:44.579Z,1001.54
2018-05-01T01:57:44.509Z,1001.56
2018-05-01T01:59:36.261Z,1001.60
2018-05-01T02:00:36.197Z,1001.64
2018-05-01T02:02:27.974Z,1001.63
2018-05-01T02:03:27.904Z,1001.67
2018-05-01T02:05:19.685Z,1001.64
2018-05-01T02:06:19.630Z,1001.65
2018-05-01T02:08:11.408Z,1001.67
2018-05-01T02:09:11.314Z,1001.73
2018-05-01T02:11:03.069Z,1001.71
2018-05-01T02:12:03.010Z,1001.73
2018-05-01T02:13:54.773Z,1001.67
2018-05-01T02:14:54.710Z,1001.64
2018-05-01T02:16:46.463Z,1001.66
2018-05-01T02:17:46.390Z,1001.63
2018-05-01T02:19:38.146Z,1001.64
2018-05-01T02:20:38.083Z,1001.60
2018-05-01T02:22:29.879Z,1001.60
2018-05-01T02:23:29.822Z,1001.60
2018-05-01T02:25:21.556Z,1001.55
2018-05-01T02:26:21.492Z,1001.57
2018-05-01T02:28:13.279Z,1001.58
2018-05-01T02:29:13.212Z,1001.62
2018-05-01T02:31:05.015Z,1001.59
2018-05-01T02:32:04.920Z,1001.66
2018-05-01T02:33:56.726Z,1001.60
2018-05-01T02:34:56.649Z,1001.56
2018-05-01T02:36:48.393Z,1001.54
2018-05-01T02:37:48.348Z,1001.51
2018-05-01T02:39:40.109Z,1001.48
2018-05-01T02:40:40.032Z,1001.46
2018-05-01T02:42:31.790Z,1001.44
2018-05-01T02:43:31.718Z,1001.43
2018-05-01T02:45:23.493Z,1001.39
2018-05-01T02:46:23.431Z,1001.45
2018-05-01T02:48:15.189Z,1001.45
2018-05-01T02:49:15.119Z,1001.41
2018-05-01T02:51:06.885Z,1001.41
2018-05-01T02:52:06.815Z,1001.44
2018-05-01T02:53:58.571Z,1001.41
2018-05-01T02:54:58.501Z,1001.43
2018-05-01T02:56:50.251Z,1001.47
2018-05-01T02:57:50.187Z,1001.44
2018-05-01T02:59:41.969Z,1001.49
2018-05-01T03:00:41.917Z,1001.48
2018-05-01T03:02:33.676Z,1001.54
2018-05-01T03:03:33.586Z,1001.52
2018-05-01T03:05:25.349Z,1001.51
2018-05-01T03:06:25.277Z,1001.52
2018-05-01T03:08:17.055Z,1001.46
2018-05-01T03:09:16.980Z,1001.54
2018-05-01T03:11:08.758Z,1001.51
2018-05-01T03:12:08.704Z,1001.56
2018-05-01T03:14:00.507Z,1001.55
2018-05-01T03:15:00.430Z,1001.50
2018-05-01T03:16:52.296Z,1001.56
2018-05-01T03:17:52.177Z,1001.54
2018-05-01T03:19:43.973Z,1001.61
2018-05-01T03:20:43.899Z,1001.63
2018-05-01T03:22:35.682Z,1001.60
2018-05-01T03:23:35.598Z,1001.56
2018-05-01T03:25:27.387Z,1001.59
2018-05-01T03:26:27.296Z,1001.59
2018-05-01T03:28:19.085Z,1001.65
2018-05-01T03:29:19.014Z,1001.62
2018-05-01T03:31:10.763Z,1001.67
2018-05-01T03:32:10.696Z,1001.70
2018-05-01T03:34:02.479Z,1001.82
2018-05-01T03:35:02.435Z,1001.78
2018-05-01T03:36:54.152Z,1001.84
2018-05-01T03:37:54.096Z,1001.75
2018-05-01T03:39:45.852Z,1001.76
2018-05-01T03:40:45.780Z,1001.78
2018-05-01T03:42:37.565Z,1001.76
2018-05-01T03:43:37.495Z,1001.80
2018-05-01T03:45:29.287Z,1001.81
2018-05-01T03:46:29.215Z,1001.89
2018-05-01T03:48:20.972Z,1001.86
2018-05-01T03:49:20.894Z,1001.92
2018-05-01T03:51:12.638Z,1001.95
2018-05-01T03:52:12.573Z,1001.91
2018-05-01T03:54:04.334Z,1001.83
2018-05-01T03:55:04.262Z,1002.01
2018-05-01T03:56:56.018Z,1001.98
2018-05-01T03:57:55.958Z,1001.97
2018-05-01T03:59:47.715Z,1001.99
2018-05-01T04:00:47.641Z,1001.97
2018-05-01T04:02:39.444Z,1001.99
2018-05-01T04:03:39.381Z,1002.03
2018-05-01T04:05:31.178Z,1002.05
2018-05-01T04:06:31.099Z,1002.14
2018-05-01T04:08:22.890Z,1002.15
2018-05-01T04:09:22.806Z,1002.04
2018-05-01T04:11:14.603Z,1002.01
2018-05-01T04:12:14.542Z,1002.10
2018-05-01T04:14:06.368Z,1002.12
2018-05-01T04:15:06.280Z,1002.14
2018-05-01T04:16:58.036Z,1002.14
2018-05-01T04:17:57.971Z,1002.18
2018-05-01T04:19:49.723Z,1002.20
2018-05-01T04:20:49.656Z,1002.20
2018-05-01T04:22:41.401Z,1002.21
2018-05-01T04:23:41.337Z,1002.21
2018-05-01T04:25:33.122Z,1002.21
2018-05-01T04:26:33.059Z,1002.25
2018-05-01T04:28:24.786Z,1002.28
2018-05-01T04:29:24.728Z,1002.30
2018-05-01T04:31:16.492Z,1002.34
2018-05-01T04:32:16.439Z,1002.34
2018-05-01T04:34:08.175Z,1002.28
2018-05-01T04:35:08.100Z,1002.37
2018-05-01T04:36:59.860Z,1002.37
2018-05-01T04:37:59.782Z,1002.44
2018-05-01T04:39:51.549Z,1002.45
2018-05-01T04:40:51.475Z,1002.45
2018-05-01T04:42:43.264Z,1002.55
2018-05-01T04:43:43.201Z,1002.55
2018-05-01T04:45:34.962Z,1002.57
2018-05-01T04:46:34.893Z,1002.58
2018-05-01T04:48:26.642Z,1002.64
2018-05-01T04:49:26.581Z,1002.67
2018-05-01T04:51:18.355Z,1002.68
2018-05-01T04:52:18.280Z,1002.65
2018-05-01T04:54:10.033Z,1002.70
2018-05-01T04:55:09.957Z,1002.59
2018-05-01T04:57:01.722Z,1002.61
2018-05-01T04:58:01.666Z,1002.61
2018-05-01T04:59:53.425Z,1002.66
2018-05-01T05:00:53.351Z,1002.68
2018-05-01T05:02:45.104Z,1002.69
2018-05-01T05:03:45.034Z,1002.63
2018-05-01T05:05:36.793Z,1002.64
2018-05-01T05:06:36.721Z,1002.61
2018-05-01T05:08:28.490Z,1002.60
2018-05-01T05:09:28.561Z,1002.61
2018-05-01T05:11:20.183Z,1002.56
2018-05-01T05:12:20.121Z,1002.58
2018-05-01T05:14:11.862Z,1002.54
2018-05-01T05:15:11.818Z,1002.57
2018-05-01T05:17:03.566Z,1002.55
2018-05-01T05:18:03.495Z,1002.62
2018-05-01T05:19:55.245Z,1002.59
2018-05-01T05:20:55.170Z,1002.56
2018-05-01T05:22:46.941Z,1002.39
2018-05-01T05:23:46.873Z,1002.52
2018-05-01T05:25:38.643Z,1002.49
2018-05-01T05:26:38.577Z,1002.48
2018-05-01T05:28:30.331Z,1002.55
2018-05-01T05:29:30.268Z,1002.69
2018-05-01T05:31:22.027Z,1002.70
2018-05-01T05:32:21.955Z,1002.57
2018-05-01T05:34:13.707Z,1002.67
2018-05-01T05:35:13.654Z,1002.66
2018-05-01T05:37:05.416Z,1002.66
2018-05-01T05:38:05.345Z,1002.69
2018-05-01T05:39:57.177Z,1002.73
2018-05-01T05:40:57.050Z,1002.71
2018-05-01T05:42:48.873Z,1002.72
2018-05-01T05:43:48.778Z,1002.76
2018-05-01T05:45:40.506Z,1002.73
2018-05-01T05:46:40.477Z,1002.76
2018-05-01T05:48:32.197Z,1002.81
2018-05-01T05:49:32.133Z,1002.85
2018-05-01T05:51:23.904Z,1002.77
2018-05-01T05:52:23.833Z,1002.87
2018-05-01T05:54:15.585Z,1002.96
2018-05-01T05:55:15.531Z,1002.87
2018-05-01T05:57:07.324Z,1002.86
2018-05-01T05:58:07.244Z,1002.94
2018-05-01T05:59:59.140Z,1002.96
2018-05-01T06:00:58.939Z,1002.95
2018-05-01T06:02:50.708Z,1002.89
2018-05-01T06:03:50.642Z,1002.93
2018-05-01T06:05:42.405Z,1002.98
2018-05-01T06:06:42.362Z,1002.93
2018-05-01T06:08:34.114Z,1002.90
2018-05-01T06:09:34.053Z,1002.88
2018-05-01T06:11:25.835Z,1002.95
2018-05-01T06:12:25.769Z,1003.01
2018-05-01T06:14:17.520Z,1003.13
2018-05-01T06:15:17.465Z,1003.04
2018-05-01T06:17:09.232Z,1003.09
2018-05-01T06:18:09.168Z,1003.13
2018-05-01T06:20:00.937Z,1003.21
2018-05-01T06:21:00.880Z,1003.20
2018-05-01T06:22:52.686Z,1003.29
2018-05-01T06:23:52.615Z,1003.22
2018-05-01T06:25:44.392Z,1003.22
2018-05-01T06:26:44.326Z,1003.13
2018-05-01T06:28:36.141Z,1003.16
2018-05-01T06:29:36.084Z,1003.20
2018-05-01T06:31:27.857Z,1003.18
2018-05-01T06:32:27.792Z,1003.24
2018-05-01T06:34:19.553Z,1003.32
2018-05-01T06:35:19.503Z,1003.22
2018-05-01T06:37:11.306Z,1003.12
2018-05-01T06:38:11.243Z,1003.26
2018-05-01T06:40:03.005Z,1003.22
2018-05-01T06:41:02.951Z,1003.24
2018-05-01T06:42:54.744Z,1003.37
2018-05-01T06:43:54.694Z,1003.45
2018-05-01T06:45:46.446Z,1003.28
2018-05-01T06:46:46.391Z,1003.36
2018-05-01T06:48:38.167Z,1003.33
2018-05-01T06:49:38.103Z,1003.42
2018-05-01T06:51:29.882Z,1003.43
2018-05-01T06:52:29.804Z,1003.40
2018-05-01T06:54:21.676Z,1003.44
2018-05-01T06:55:21.625Z,1003.54
2018-05-01T06:57:13.412Z,1003.60
2018-05-01T06:58:13.349Z,1003.65
2018-05-01T07:00:05.106Z,1003.61
2018-05-01T07:01:05.057Z,1003.59
2018-05-01T07:02:56.825Z,1003.77
2018-05-01T07:03:56.764Z,1003.64
2018-05-01T07:05:48.537Z,1003.84
2018-05-01T07:06:48.489Z,1003.71
2018-05-01T07:08:40.260Z,1003.82
2018-05-01T07:09:40.197Z,1003.67
2018-05-01T07:11:31.969Z,1003.78
2018-05-01T07:12:31.907Z,1003.70
2018-05-01T07:14:23.670Z,1003.77
2018-05-01T07:15:23.614Z,1003.70
2018-05-01T07:17:15.408Z,1003.66
2018-05-01T07:18:15.340Z,1003.64
2018-05-01T07:20:07.118Z,1003.75
2018-05-01T07:21:07.125Z,1003.90
2018-05-01T07:22:58.837Z,1003.68
2018-05-01T07:23:58.785Z,1003.54
2018-05-01T07:25:50.546Z,1003.80
2018-05-01T07:26:50.491Z,1003.81
2018-05-01T07:28:42.260Z,1003.80
2018-05-01T07:29:42.196Z,1003.86
2018-05-01T07:31:33.966Z,1003.84
2018-05-01T07:32:33.913Z,1003.87
2018-05-01T07:34:25.711Z,1003.91
2018-05-01T07:35:25.626Z,1003.94
2018-05-01T07:37:17.426Z,1003.87
2018-05-01T07:38:17.393Z,1003.91
2018-05-01T07:40:09.146Z,1003.79
2018-05-01T07:41:09.128Z,1003.80
2018-05-01T07:43:00.881Z,1003.90
2018-05-01T07:44:00.823Z,1003.74
2018-05-01T07:45:52.599Z,1003.83
2018-05-01T07:46:52.578Z,1003.66
2018-05-01T07:48:44.334Z,1003.76
2018-05-01T07:49:44.269Z,1003.89
2018-05-01T07:51:36.055Z,1004.04
2018-05-01T07:52:35.997Z,1003.98
2018-05-01T07:54:27.791Z,1003.92
2018-05-01T07:55:27.725Z,1003.94
2018-05-01T07:57:19.511Z,1003.69
2018-05-01T07:58:19.450Z,1003.98
2018-05-01T08:00:11.236Z,1003.88
2018-05-01T08:01:11.177Z,1003.88
2018-05-01T08:03:02.967Z,1003.92
2018-05-01T08:04:02.903Z,1003.87
2018-05-01T08:05:54.677Z,1003.91
2018-05-01T08:06:54.649Z,1003.78
2018-05-01T08:08:46.413Z,1003.82
2018-05-01T08:09:46.350Z,1003.89
2018-05-01T08:11:38.129Z,1003.66
2018-05-01T08:12:38.074Z,1003.72
2018-05-01T08:14:29.861Z,1003.83
2018-05-01T08:15:29.799Z,1003.72
2018-05-01T08:17:21.590Z,1003.74
2018-05-01T08:18:21.522Z,1003.93
2018-05-01T08:20:13.300Z,1003.81
2018-05-01T08:21:13.247Z,1004.07
2018-05-01T08:23:05.033Z,1004.08
2018-05-01T08:24:04.974Z,1004.00
2018-05-01T08:25:56.723Z,1004.24
2018-05-01T08:26:56.670Z,1004.16
2018-05-01T08:28:48.436Z,1004.13
2018-05-01T08:29:48.373Z,1004.15
2018-05-01T08:31:40.182Z,1004.04
2018-05-01T08:32:40.127Z,1004.38
2018-05-01T08:34:31.902Z,1004.25
2018-05-01T08:35:31.833Z,1004.23
2018-05-01T08:37:23.606Z,1004.15
2018-05-01T08:38:23.546Z,1004.19
2018-05-01T08:40:15.323Z,1004.25
2018-05-01T08:41:15.254Z,1004.29
2018-05-01T08:43:07.021Z,1004.21
2018-05-01T08:44:06.959Z,1004.29
2018-05-01T08:45:58.727Z,1004.17
2018-05-01T08:46:58.675Z,1004.20
2018-05-01T08:48:50.447Z,1004.17
2018-05-01T08:49:50.381Z,1004.28
2018-05-01T08:51:42.140Z,1004.26
2018-05-01T08:52:42.089Z,1004.37
2018-05-01T08:54:33.851Z,1004.41
2018-05-01T08:55:33.785Z,1004.61
2018-05-01T08:57:25.567Z,1004.18
2018-05-01T08:58:25.485Z,1004.39
2018-05-01T09:00:17.263Z,1004.68
2018-05-01T09:01:17.191Z,1004.53
2018-05-01T09:03:08.965Z,1004.83
2018-05-01T09:04:08.908Z,1004.53
2018-05-01T09:06:00.657Z,1004.59
2018-05-01T09:07:00.597Z,1004.62
2018-05-01T09:08:52.384Z,1004.41
2018-05-01T09:09:52.318Z,1004.59
2018-05-01T09:11:44.108Z,1004.66
2018-05-01T09:12:44.045Z,1004.66
2018-05-01T09:14:35.834Z,1004.73
2018-05-01T09:15:35.770Z,1004.82
2018-05-01T09:17:27.546Z,1004.62
2018-05-01T09:18:27.574Z,1004.76
2018-05-01T09:20:19.287Z,1004.72
2018-05-01T09:21:19.221Z,1004.70
2018-05-01T09:23:10.999Z,1004.73
2018-05-01T09:24:10.951Z,1004.78
2018-05-01T09:26:02.734Z,1004.87
2018-05-01T09:27:02.684Z,1004.85
2018-05-01T09:28:54.460Z,1005.10
2018-05-01T09:29:54.404Z,1004.95
2018-05-01T09:31:46.164Z,1004.91
2018-05-01T09:32:46.111Z,1004.99
2018-05-01T09:34:37.893Z,1005.25
2018-05-01T09:35:37.831Z,1005.14
2018-05-01T09:37:29.592Z,1005.20
2018-05-01T09:38:29.542Z,1005.21
2018-05-01T09:40:21.322Z,1005.30
2018-05-01T09:41:21.262Z,1005.36
2018-05-01T09:43:13.033Z,1005.23
2018-05-01T09:44:12.981Z,1005.26
2018-05-01T09:46:04.783Z,1005.38
2018-05-01T09:47:04.710Z,1005.33
2018-05-01T09:48:56.491Z,1005.40
2018-05-01T09:49:56.430Z,1005.36
2018-05-01T09:51:48.202Z,1005.26
2018-05-01T09:52:48.149Z,1005.30
2018-05-01T09:54:39.938Z,1005.40
2018-05-01T09:55:39.883Z,1004.80
2018-05-01T09:57:31.656Z,1005.50
2018-05-01T09:58:31.600Z,1005.46
2018-05-01T10:00:23.390Z,1005.56
2018-05-01T10:01:23.326Z,1005.47
2018-05-01T10:03:15.110Z,1005.55
2018-05-01T10:04:15.051Z,1005.58
2018-05-01T10:06:06.838Z,1005.46
2018-05-01T10:07:06.786Z,1005.62
2018-05-01T10:08:58.557Z,1005.51
2018-05-01T10:09:58.507Z,1005.46
2018-05-01T10:11:50.287Z,1005.56
2018-05-01T10:12:50.226Z,1005.06
2018-05-01T10:14:42.018Z,1005.82
2018-05-01T10:15:41.954Z,1005.65
2018-05-01T10:17:33.728Z,1005.62
2018-05-01T10:18:33.676Z,1005.58
2018-05-01T10:20:25.543Z,1005.69
2018-05-01T10:21:25.430Z,1005.67
2018-05-01T10:23:17.232Z,1005.68
2018-05-01T10:24:17.163Z,1005.53
2018-05-01T10:26:08.935Z,1004.88
2018-05-01T10:27:08.870Z,1005.74
2018-05-01T10:29:00.641Z,1005.51
2018-05-01T10:30:00.599Z,1005.21
2018-05-01T10:31:52.370Z,1005.59
2018-05-01T10:32:52.314Z,1005.54
2018-05-01T10:34:44.091Z,1005.71
2018-05-01T10:35:44.028Z,1005.73
2018-05-01T10:37:35.809Z,1005.61
2018-05-01T10:38:35.863Z,1005.69
2018-05-01T10:40:27.545Z,1005.84
2018-05-01T10:41:27.481Z,1005.67
2018-05-01T10:43:19.280Z,1005.70
2018-05-01T10:44:19.227Z,1005.66
2018-05-01T10:46:11.008Z,1005.67
2018-05-01T10:47:10.947Z,1005.63
2018-05-01T10:49:02.710Z,1005.70
2018-05-01T10:50:02.668Z,1005.61
2018-05-01T10:51:54.452Z,1005.57
2018-05-01T10:52:54.392Z,1005.72
2018-05-01T10:54:46.217Z,1005.86
2018-05-01T10:55:46.112Z,1005.77
2018-05-01T10:57:37.889Z,1005.62
2018-05-01T10:58:37.830Z,1005.65
2018-05-01T11:00:29.617Z,1005.58
2018-05-01T11:01:29.554Z,1005.60
2018-05-01T11:03:21.330Z,1005.46
2018-05-01T11:04:21.280Z,1005.09
2018-05-01T11:06:13.071Z,1005.05
2018-05-01T11:07:13.029Z,1005.02
2018-05-01T11:09:04.780Z,1005.06
2018-05-01T11:10:04.731Z,1004.95
2018-05-01T11:11:56.593Z,1005.00
2018-05-01T11:12:56.455Z,1005.05
2018-05-01T11:14:48.263Z,1005.07
2018-05-01T11:15:48.210Z,1005.08
2018-05-01T11:17:39.999Z,1005.02
2018-05-01T11:18:39.936Z,1005.18
2018-05-01T11:20:31.726Z,1005.19
2018-05-01T11:21:31.660Z,1004.98
2018-05-01T11:23:23.448Z,1005.09
2018-05-01T11:24:23.390Z,1005.07
2018-05-01T11:26:15.263Z,1005.09
2018-05-01T11:27:15.114Z,1004.91
2018-05-01T11:29:06.898Z,1005.13
2018-05-01T11:30:06.839Z,1005.21
2018-05-01T11:31:58.634Z,1005.12
2018-05-01T11:32:58.566Z,1005.13
2018-05-01T11:34:50.348Z,1005.11
2018-05-01T11:35:50.287Z,1005.13
2018-05-01T11:37:42.123Z,1005.16
2018-05-01T11:38:42.060Z,1005.26
2018-05-01T11:40:33.814Z,1005.17
2018-05-01T11:41:33.780Z,1005.23
2018-05-01T11:43:25.540Z,1005.27
2018-05-01T11:44:25.468Z,1005.31
2018-05-01T11:46:17.269Z,1005.20
2018-05-01T11:47:17.194Z,1005.32
2018-05-01T11:49:08.968Z,1005.29
2018-05-01T11:50:08.904Z,1005.27
2018-05-01T11:52:00.680Z,1005.25
2018-05-01T11:53:00.612Z,1005.41
2018-05-01T11:54:52.371Z,1005.48
2018-05-01T11:55:52.306Z,1005.44
2018-05-01T11:57:44.101Z,1005.46
2018-05-01T11:58:44.074Z,1005.49
2018-05-01T12:00:35.787Z,1005.48
2018-05-01T12:01:35.725Z,1005.47
2018-05-01T12:03:27.516Z,1005.55
2018-05-01T12:04:27.551Z,1005.57
2018-05-01T12:06:19.231Z,1005.62
2018-05-01T12:07:19.155Z,1005.62
2018-05-01T12:09:10.912Z,1005.57
2018-05-01T12:10:10.852Z,1005.55
2018-05-01T12:12:02.641Z,1005.59
2018-05-01T12:13:02.570Z,1005.64
2018-05-01T12:14:54.362Z,1005.75
2018-05-01T12:15:54.299Z,1005.70
2018-05-01T12:17:46.104Z,1005.73
2018-05-01T12:18:46.022Z,1005.55
2018-05-01T12:20:37.809Z,1005.76
2018-05-01T12:21:37.743Z,1005.81
2018-05-01T12:23:29.512Z,1005.83
2018-05-01T12:24:29.443Z,1005.83
2018-05-01T12:26:21.204Z,1005.87
2018-05-01T12:27:21.151Z,1005.82
2018-05-01T12:29:12.917Z,1005.84
2018-05-01T12:30:12.855Z,1005.86
2018-05-01T12:32:04.620Z,1005.81
2018-05-01T12:33:04.545Z,1005.74
2018-05-01T12:34:56.323Z,1005.92
2018-05-01T12:35:56.234Z,1005.94
2018-05-01T12:37:48.025Z,1005.89
2018-05-01T12:38:47.953Z,1005.96
2018-05-01T12:40:39.723Z,1005.76
2018-05-01T12:41:39.674Z,1005.80
2018-05-01T12:43:31.428Z,1005.66
2018-05-01T12:44:31.359Z,1005.90
2018-05-01T12:46:23.127Z,1005.84
2018-05-01T12:47:23.063Z,1005.78
2018-05-01T12:49:14.826Z,1005.95
2018-05-01T12:50:14.756Z,1005.89
2018-05-01T12:52:06.548Z,1005.80
2018-05-01T12:53:06.448Z,1005.86
2018-05-01T12:54:58.207Z,1005.83
2018-05-01T12:55:58.142Z,1005.82
2018-05-01T12:57:49.902Z,1005.89
2018-05-01T12:58:49.836Z,1005.90
2018-05-01T13:00:41.598Z,1005.90
2018-05-01T13:01:41.539Z,1005.92
2018-05-01T13:03:33.327Z,1005.95
2018-05-01T13:04:33.259Z,1005.93
2018-05-01T13:06:25.032Z,1005.85
2018-05-01T13:07:24.969Z,1005.86
2018-05-01T13:09:16.741Z,1005.86
2018-05-01T13:10:16.668Z,1005.81
2018-05-01T13:12:08.463Z,1005.80
2018-05-01T13:13:08.394Z,1005.70
2018-05-01T13:15:00.144Z,1005.71
2018-05-01T13:16:00.075Z,1005.70
2018-05-01T13:17:51.838Z,1005.75
2018-05-01T13:18:51.766Z,1005.83
2018-05-01T13:20:43.519Z,1005.77
2018-05-01T13:21:43.459Z,1005.83
2018-05-01T13:23:35.221Z,1005.87
2018-05-01T13:24:35.148Z,1005.81
2018-05-01T13:26:26.922Z,1005.88
2018-05-01T13:27:26.922Z,1005.93
2018-05-01T13:29:18.655Z,1006.00
2018-05-01T13:30:18.594Z,1005.79
2018-05-01T13:32:10.362Z,1005.91
2018-05-01T13:33:10.300Z,1005.91
2018-05-01T13:35:02.063Z,1005.94
2018-05-01T13:36:01.992Z,1005.93
2018-05-01T13:37:53.780Z,1005.95
2018-05-01T13:38:53.693Z,1006.04
2018-05-01T13:40:45.451Z,1006.06
2018-05-01T13:41:45.387Z,1006.03
2018-05-01T13:43:37.160Z,1006.12
2018-05-01T13:44:37.079Z,1005.86
2018-05-01T13:46:28.827Z,1005.99
2018-05-01T13:47:28.770Z,1005.98
2018-05-01T13:49:20.532Z,1006.00
2018-05-01T13:50:20.463Z,1006.12
2018-05-01T13:52:12.244Z,1006.01
2018-05-01T13:53:12.191Z,1006.08
2018-05-01T13:55:03.942Z,1006.13
2018-05-01T13:56:03.875Z,1006.18
2018-05-01T13:57:55.634Z,1006.06
2018-05-01T13:58:55.579Z,1006.06
2018-05-01T14:00:47.371Z,1006.21
2018-05-01T14:01:47.272Z,1006.24
2018-05-01T14:03:39.047Z,1006.09
2018-05-01T14:04:38.996Z,1006.15
2018-05-01T14:06:30.827Z,1006.28
2018-05-01T14:07:30.680Z,1006.23
2018-05-01T14:09:22.480Z,1006.24
2018-05-01T14:10:22.414Z,1006.28
2018-05-01T14:12:14.158Z,1006.22
2018-05-01T14:13:14.148Z,1006.20
2018-05-01T14:15:05.875Z,1006.24
2018-05-01T14:16:05.790Z,1006.26
2018-05-01T14:17:57.569Z,1006.24
2018-05-01T14:18:57.495Z,1006.25
2018-05-01T14:20:49.267Z,1006.24
2018-05-01T14:21:49.186Z,1006.30
2018-05-01T14:23:40.941Z,1006.21
2018-05-01T14:24:40.874Z,1006.22
2018-05-01T14:26:32.655Z,1006.20
2018-05-01T14:27:32.579Z,1006.30
2018-05-01T14:29:24.349Z,1006.43
2018-05-01T14:30:24.273Z,1006.33
2018-05-01T14:32:16.038Z,1006.32
2018-05-01T14:33:15.976Z,1006.34
2018-05-01T14:35:07.757Z,1006.39
2018-05-01T14:36:07.672Z,1006.38
2018-05-01T14:37:59.464Z,1006.47
2018-05-01T14:38:59.365Z,1006.46
2018-05-01T14:40:51.127Z,1006.43
2018-05-01T14:41:51.055Z,1006.50
2018-05-01T14:43:42.826Z,1006.69
2018-05-01T14:44:42.765Z,1006.69
2018-05-01T14:46:34.561Z,1006.69
2018-05-01T14:47:34.455Z,1006.70
2018-05-01T14:49:26.219Z,1006.76
2018-05-01T14:50:26.190Z,1006.81
2018-05-01T14:52:17.900Z,1006.76
2018-05-01T14:53:17.841Z,1006.85
2018-05-01T14:55:09.617Z,1006.68
2018-05-01T14:56:09.548Z,1006.75
2018-05-01T14:58:01.308Z,1006.90
2018-05-01T14:59:01.245Z,1006.86
2018-05-01T15:00:53.002Z,1006.90
2018-05-01T15:01:52.932Z,1006.84
2018-05-01T15:03:44.703Z,1006.86
2018-05-01T15:04:44.643Z,1006.85
2018-05-01T15:06:36.419Z,1007.00
2018-05-01T15:07:36.357Z,1006.89
2018-05-01T15:09:28.106Z,1006.97
2018-05-01T15:10:28.091Z,1006.93
2018-05-01T15:12:19.811Z,1006.94
2018-05-01T15:13:19.737Z,1006.93
2018-05-01T15:15:11.498Z,1006.89
2018-05-01T15:16:11.428Z,1006.93
2018-05-01T15:18:03.180Z,1006.97
2018-05-01T15:19:03.116Z,1007.06
2018-05-01T15:20:54.896Z,1007.02
2018-05-01T15:21:54.819Z,1007.00
2018-05-01T15:23:46.579Z,1006.97
2018-05-01T15:24:46.522Z,1006.97
2018-05-01T15:26:38.290Z,1007.04
2018-05-01T15:27:38.216Z,1007.06
2018-05-01T15:29:29.976Z,1007.19
2018-05-01T15:30:29.983Z,1007.18
2018-05-01T15:32:21.674Z,1007.22
2018-05-01T15:33:21.612Z,1007.12
2018-05-01T15:35:13.371Z,1007.09
2018-05-01T15:36:13.301Z,1007.05
2018-05-01T15:38:05.051Z,1007.05
2018-05-01T15:39:04.990Z,1007.00
2018-05-01T15:40:56.764Z,1007.02
2018-05-01T15:41:56.687Z,1006.93
2018-05-01T15:43:48.439Z,1006.96
2018-05-01T15:44:48.381Z,1006.95
2018-05-01T15:46:40.143Z,1007.02
2018-05-01T15:47:40.073Z,1007.05
2018-05-01T15:49:31.854Z,1007.05
2018-05-01T15:50:31.794Z,1007.06
2018-05-01T15:52:23.577Z,1007.02
2018-05-01T15:53:23.496Z,1006.95
2018-05-01T15:55:15.246Z,1007.00
2018-05-01T15:56:15.186Z,1007.01
2018-05-01T15:58:07.005Z,1007.02
2018-05-01T15:59:06.918Z,1007.05
2018-05-01T16:00:58.707Z,1007.11
2018-05-01T16:01:58.636Z,1007.08
2018-05-01T16:03:50.398Z,1007.01
2018-05-01T16:04:50.322Z,1007.01
2018-05-01T16:06:42.204Z,1007.07
2018-05-01T16:07:42.045Z,1007.17
2018-05-01T16:09:33.816Z,1007.08
2018-05-01T16:10:33.748Z,1007.08
2018-05-01T16:12:25.512Z,1007.15
2018-05-01T16:13:25.438Z,1007.05
2018-05-01T16:15:17.192Z,1007.09
2018-05-01T16:16:17.128Z,1007.09
2018-05-01T16:18:08.925Z,1007.19
2018-05-01T16:19:08.842Z,1007.18
2018-05-01T16:21:00.585Z,1007.08
2018-05-01T16:22:00.517Z,1007.11
2018-05-01T16:23:52.332Z,1007.01
2018-05-01T16:24:52.210Z,1007.04
2018-05-01T16:26:44.009Z,1007.04
2018-05-01T16:27:43.963Z,1007.09
2018-05-01T16:29:35.702Z,1007.05
2018-05-01T16:30:35.631Z,1007.04
2018-05-01T16:32:27.484Z,1007.06
2018-05-01T16:33:27.411Z,1007.15
2018-05-01T16:35:19.174Z,1007.10
2018-05-01T16:36:19.193Z,1007.06
2018-05-01T16:38:10.915Z,1007.03
2018-05-01T16:39:10.846Z,1007.00
2018-05-01T16:41:02.630Z,1007.00
2018-05-01T16:42:02.567Z,1007.03
2018-05-01T16:43:54.351Z,1007.09
2018-05-01T16:44:54.263Z,1007.12
2018-05-01T16:46:46.053Z,1007.07
2018-05-01T16:47:46.002Z,1007.10
2018-05-01T16:49:37.772Z,1007.11
2018-05-01T16:50:37.687Z,1007.09
2018-05-01T16:52:29.446Z,1007.11
2018-05-01T16:53:29.376Z,1007.10
2018-05-01T16:55:21.157Z,1007.06
2018-05-01T16:56:21.095Z,1007.13
2018-05-01T16:58:12.859Z,1007.14
2018-05-01T16:59:12.792Z,1007.19
2018-05-01T17:01:04.644Z,1007.26
2018-05-01T17:02:04.503Z,1007.34
2018-05-01T17:03:56.385Z,1007.33
2018-05-01T17:04:56.191Z,1007.37
2018-05-01T17:06:48.010Z,1007.32
2018-05-01T17:07:47.894Z,1007.32
2018-05-01T17:09:39.684Z,1007.29
2018-05-01T17:10:39.614Z,1007.31
2018-05-01T17:12:31.403Z,1007.29
2018-05-01T17:13:31.332Z,1007.32
2018-05-01T17:15:23.108Z,1007.41
2018-05-01T17:16:23.031Z,1007.39
2018-05-01T17:18:14.829Z,1007.42